sensor_id;sensor_type;location;lat;lon;timestamp;P1;durP1;ratioP1;P2;durP2;ratioP2
3006;SDS011;1513;47.650;10.720;2022-12-10T00:01:31;49.87;;;20.23;;
3006;SDS011;1513;47.650;10.720;2022-12-10T00:03:58;50.73;;;19.50;;
3006;SDS011;1513;47.650;10.720;2022-12-10T00:06:25;50.07;;;20.70;;
3006;SDS011;1513;47.650;10.720;2022-12-10T00:08:53;40.47;;;17.10;;
3006;SDS011;1513;47.650;10.720;2022-12-10T00:11:20;52.97;;;19.77;;
3006;SDS011;1513;47.650;10.720;2022-12-10T00:13:47;46.90;;;19.30;;
3006;SDS011;1513;47.650;10.720;2022-12-10T00:16:15;47.63;;;18.93;;
3006;SDS011;1513;47.650;10.720;2022-12-10T00:18:43;41.73;;;18.30;;
3006;SDS011;1513;47.650;10.720;2022-12-10T00:21:14;44.50;;;17.47;;
3006;SDS011;1513;47.650;10.720;2022-12-10T00:23:42;35.40;;;16.27;;
3006;SDS011;1513;47.650;10.720;2022-12-10T00:26:16;46.63;;;18.87;;
3006;SDS011;1513;47.650;10.720;2022-12-10T00:28:45;48.17;;;20.00;;
3006;SDS011;1513;47.650;10.720;2022-12-10T00:31:12;42.70;;;18.37;;
3006;SDS011;1513;47.650;10.720;2022-12-10T00:33:46;44.53;;;19.20;;
3006;SDS011;1513;47.650;10.720;2022-12-10T00:36:15;45.93;;;18.00;;
3006;SDS011;1513;47.650;10.720;2022-12-10T00:38:43;45.50;;;18.50;;
3006;SDS011;1513;47.650;10.720;2022-12-10T00:41:10;42.00;;;17.70;;
3006;SDS011;1513;47.650;10.720;2022-12-10T00:43:37;50.33;;;20.03;;
3006;SDS011;1513;47.650;10.720;2022-12-10T00:46:03;46.93;;;18.20;;
3006;SDS011;1513;47.650;10.720;2022-12-10T00:48:30;41.90;;;18.77;;
3006;SDS011;1513;47.650;10.720;2022-12-10T00:53:52;49.20;;;18.80;;
3006;SDS011;1513;47.650;10.720;2022-12-10T00:56:22;39.87;;;18.33;;
3006;SDS011;1513;47.650;10.720;2022-12-10T00:58:50;46.80;;;20.80;;
3006;SDS011;1513;47.650;10.720;2022-12-10T01:01:23;43.73;;;18.80;;
3006;SDS011;1513;47.650;10.720;2022-12-10T01:03:52;42.23;;;17.90;;
3006;SDS011;1513;47.650;10.720;2022-12-10T01:06:24;42.77;;;19.00;;
3006;SDS011;1513;47.650;10.720;2022-12-10T01:08:51;43.10;;;17.80;;
3006;SDS011;1513;47.650;10.720;2022-12-10T01:11:19;44.07;;;18.07;;
3006;SDS011;1513;47.650;10.720;2022-12-10T01:13:47;44.37;;;18.90;;
3006;SDS011;1513;47.650;10.720;2022-12-10T01:16:14;45.37;;;20.50;;
3006;SDS011;1513;47.650;10.720;2022-12-10T01:18:43;46.30;;;18.30;;
3006;SDS011;1513;47.650;10.720;2022-12-10T01:21:10;40.40;;;16.63;;
3006;SDS011;1513;47.650;10.720;2022-12-10T01:23:40;44.70;;;18.93;;
3006;SDS011;1513;47.650;10.720;2022-12-10T01:26:10;43.50;;;18.07;;
3006;SDS011;1513;47.650;10.720;2022-12-10T01:28:37;41.33;;;18.20;;
3006;SDS011;1513;47.650;10.720;2022-12-10T01:31:07;40.50;;;17.70;;
3006;SDS011;1513;47.650;10.720;2022-12-10T01:33:38;40.60;;;18.43;;
3006;SDS011;1513;47.650;10.720;2022-12-10T01:36:10;45.67;;;17.43;;
3006;SDS011;1513;47.650;10.720;2022-12-10T01:38:38;42.80;;;17.20;;
3006;SDS011;1513;47.650;10.720;2022-12-10T01:41:05;35.83;;;17.10;;
3006;SDS011;1513;47.650;10.720;2022-12-10T01:46:14;43.43;;;17.87;;
3006;SDS011;1513;47.650;10.720;2022-12-10T01:48:40;39.73;;;17.40;;
3006;SDS011;1513;47.650;10.720;2022-12-10T01:51:06;43.20;;;18.10;;
3006;SDS011;1513;47.650;10.720;2022-12-10T01:53:33;35.53;;;15.73;;
3006;SDS011;1513;47.650;10.720;2022-12-10T01:55:59;41.40;;;17.10;;
3006;SDS011;1513;47.650;10.720;2022-12-10T01:58:25;41.83;;;17.87;;
3006;SDS011;1513;47.650;10.720;2022-12-10T02:01:05;38.63;;;17.27;;
3006;SDS011;1513;47.650;10.720;2022-12-10T02:09:25;36.60;;;16.50;;
3006;SDS011;1513;47.650;10.720;2022-12-10T02:12:05;36.57;;;14.90;;
3006;SDS011;1513;47.650;10.720;2022-12-10T02:17:22;39.90;;;16.67;;
3006;SDS011;1513;47.650;10.720;2022-12-10T02:22:19;37.70;;;17.20;;
3006;SDS011;1513;47.650;10.720;2022-12-10T02:24:47;39.20;;;17.70;;
3006;SDS011;1513;47.650;10.720;2022-12-10T02:27:18;41.23;;;17.33;;
3006;SDS011;1513;47.650;10.720;2022-12-10T02:29:50;41.40;;;17.47;;
3006;SDS011;1513;47.650;10.720;2022-12-10T02:32:18;37.90;;;16.87;;
3006;SDS011;1513;47.650;10.720;2022-12-10T02:34:51;40.17;;;17.50;;
3006;SDS011;1513;47.650;10.720;2022-12-10T02:37:21;38.50;;;16.77;;
3006;SDS011;1513;47.650;10.720;2022-12-10T02:39:55;38.50;;;16.87;;
3006;SDS011;1513;47.650;10.720;2022-12-10T02:42:26;41.47;;;16.67;;
3006;SDS011;1513;47.650;10.720;2022-12-10T02:44:53;42.20;;;17.77;;
3006;SDS011;1513;47.650;10.720;2022-12-10T02:47:21;45.57;;;18.17;;
3006;SDS011;1513;47.650;10.720;2022-12-10T02:49:49;41.50;;;18.30;;
3006;SDS011;1513;47.650;10.720;2022-12-10T02:52:19;42.33;;;17.13;;
3006;SDS011;1513;47.650;10.720;2022-12-10T02:54:50;43.00;;;17.60;;
3006;SDS011;1513;47.650;10.720;2022-12-10T03:11:23;40.43;;;17.33;;
3006;SDS011;1513;47.650;10.720;2022-12-10T03:16:19;51.63;;;21.17;;
3006;SDS011;1513;47.650;10.720;2022-12-10T03:18:47;39.40;;;17.90;;
3006;SDS011;1513;47.650;10.720;2022-12-10T03:21:18;50.27;;;19.17;;
3006;SDS011;1513;47.650;10.720;2022-12-10T03:23:45;49.80;;;19.60;;
3006;SDS011;1513;47.650;10.720;2022-12-10T03:26:12;51.63;;;20.53;;
3006;SDS011;1513;47.650;10.720;2022-12-10T03:28:41;44.37;;;19.17;;
3006;SDS011;1513;47.650;10.720;2022-12-10T03:31:14;51.67;;;19.97;;
3006;SDS011;1513;47.650;10.720;2022-12-10T03:33:41;47.63;;;20.03;;
3006;SDS011;1513;47.650;10.720;2022-12-10T03:36:08;45.30;;;18.63;;
3006;SDS011;1513;47.650;10.720;2022-12-10T03:38:34;41.03;;;17.80;;
3006;SDS011;1513;47.650;10.720;2022-12-10T03:41:01;47.17;;;19.50;;
3006;SDS011;1513;47.650;10.720;2022-12-10T03:43:27;52.43;;;18.43;;
3006;SDS011;1513;47.650;10.720;2022-12-10T03:45:53;50.07;;;19.63;;
3006;SDS011;1513;47.650;10.720;2022-12-10T03:48:19;38.47;;;17.10;;
3006;SDS011;1513;47.650;10.720;2022-12-10T03:50:46;52.57;;;22.60;;
3006;SDS011;1513;47.650;10.720;2022-12-10T03:53:12;46.30;;;18.27;;
3006;SDS011;1513;47.650;10.720;2022-12-10T03:55:38;53.47;;;19.80;;
3006;SDS011;1513;47.650;10.720;2022-12-10T03:58:05;49.40;;;19.33;;
3006;SDS011;1513;47.650;10.720;2022-12-10T04:00:31;59.30;;;20.90;;
3006;SDS011;1513;47.650;10.720;2022-12-10T04:02:57;44.47;;;17.77;;
3006;SDS011;1513;47.650;10.720;2022-12-10T04:05:23;49.73;;;19.00;;
3006;SDS011;1513;47.650;10.720;2022-12-10T04:07:49;55.17;;;19.60;;
3006;SDS011;1513;47.650;10.720;2022-12-10T04:10:16;63.43;;;20.47;;
3006;SDS011;1513;47.650;10.720;2022-12-10T04:12:42;47.90;;;19.00;;
3006;SDS011;1513;47.650;10.720;2022-12-10T04:15:28;45.63;;;18.77;;
3006;SDS011;1513;47.650;10.720;2022-12-10T04:18:13;56.67;;;20.17;;
3006;SDS011;1513;47.650;10.720;2022-12-10T04:20:39;50.73;;;19.40;;
3006;SDS011;1513;47.650;10.720;2022-12-10T04:23:24;54.10;;;22.00;;
3006;SDS011;1513;47.650;10.720;2022-12-10T04:26:09;49.77;;;20.07;;
3006;SDS011;1513;47.650;10.720;2022-12-10T04:28:54;53.53;;;20.30;;
3006;SDS011;1513;47.650;10.720;2022-12-10T04:31:20;49.13;;;20.43;;
3006;SDS011;1513;47.650;10.720;2022-12-10T04:33:46;51.23;;;19.37;;
3006;SDS011;1513;47.650;10.720;2022-12-10T04:36:12;50.03;;;18.87;;
3006;SDS011;1513;47.650;10.720;2022-12-10T04:38:38;43.53;;;18.83;;
3006;SDS011;1513;47.650;10.720;2022-12-10T04:41:04;53.93;;;20.53;;
3006;SDS011;1513;47.650;10.720;2022-12-10T04:43:41;51.07;;;19.47;;
3006;SDS011;1513;47.650;10.720;2022-12-10T04:46:08;46.60;;;18.73;;
3006;SDS011;1513;47.650;10.720;2022-12-10T04:48:35;54.90;;;20.00;;
3006;SDS011;1513;47.650;10.720;2022-12-10T04:51:01;51.67;;;19.50;;
3006;SDS011;1513;47.650;10.720;2022-12-10T04:53:28;50.87;;;20.17;;
3006;SDS011;1513;47.650;10.720;2022-12-10T04:55:54;51.83;;;21.00;;
3006;SDS011;1513;47.650;10.720;2022-12-10T04:58:20;53.27;;;19.43;;
3006;SDS011;1513;47.650;10.720;2022-12-10T05:00:47;53.60;;;19.30;;
3006;SDS011;1513;47.650;10.720;2022-12-10T05:03:13;43.33;;;18.23;;
3006;SDS011;1513;47.650;10.720;2022-12-10T05:05:39;53.73;;;20.77;;
3006;SDS011;1513;47.650;10.720;2022-12-10T05:08:05;46.37;;;18.60;;
3006;SDS011;1513;47.650;10.720;2022-12-10T05:10:33;52.77;;;18.90;;
3006;SDS011;1513;47.650;10.720;2022-12-10T05:13:00;54.60;;;18.80;;
3006;SDS011;1513;47.650;10.720;2022-12-10T05:15:26;49.13;;;18.03;;
3006;SDS011;1513;47.650;10.720;2022-12-10T05:17:52;45.77;;;18.07;;
3006;SDS011;1513;47.650;10.720;2022-12-10T05:20:18;41.30;;;18.80;;
3006;SDS011;1513;47.650;10.720;2022-12-10T05:22:44;52.63;;;19.47;;
3006;SDS011;1513;47.650;10.720;2022-12-10T05:25:29;44.00;;;19.53;;
3006;SDS011;1513;47.650;10.720;2022-12-10T05:27:56;50.80;;;18.33;;
3006;SDS011;1513;47.650;10.720;2022-12-10T05:30:22;40.93;;;17.67;;
3006;SDS011;1513;47.650;10.720;2022-12-10T05:32:48;44.50;;;19.40;;
3006;SDS011;1513;47.650;10.720;2022-12-10T05:35:14;37.73;;;17.20;;
3006;SDS011;1513;47.650;10.720;2022-12-10T05:37:41;48.10;;;18.40;;
3006;SDS011;1513;47.650;10.720;2022-12-10T05:40:07;46.17;;;19.43;;
3006;SDS011;1513;47.650;10.720;2022-12-10T05:42:33;43.87;;;18.50;;
3006;SDS011;1513;47.650;10.720;2022-12-10T05:45:00;44.10;;;17.33;;
3006;SDS011;1513;47.650;10.720;2022-12-10T05:47:26;40.90;;;18.30;;
3006;SDS011;1513;47.650;10.720;2022-12-10T05:49:52;42.27;;;16.70;;
3006;SDS011;1513;47.650;10.720;2022-12-10T05:52:18;50.70;;;18.53;;
3006;SDS011;1513;47.650;10.720;2022-12-10T05:54:44;47.67;;;18.00;;
3006;SDS011;1513;47.650;10.720;2022-12-10T05:57:11;35.00;;;16.17;;
3006;SDS011;1513;47.650;10.720;2022-12-10T05:59:37;38.30;;;16.60;;
3006;SDS011;1513;47.650;10.720;2022-12-10T06:02:04;38.90;;;17.33;;
3006;SDS011;1513;47.650;10.720;2022-12-10T06:04:30;44.60;;;18.97;;
3006;SDS011;1513;47.650;10.720;2022-12-10T06:06:56;37.57;;;16.13;;
3006;SDS011;1513;47.650;10.720;2022-12-10T06:09:22;44.47;;;18.17;;
3006;SDS011;1513;47.650;10.720;2022-12-10T06:11:48;35.27;;;15.70;;
3006;SDS011;1513;47.650;10.720;2022-12-10T06:14:15;45.50;;;15.80;;
3006;SDS011;1513;47.650;10.720;2022-12-10T06:16:41;44.10;;;18.03;;
3006;SDS011;1513;47.650;10.720;2022-12-10T06:19:07;42.10;;;17.93;;
3006;SDS011;1513;47.650;10.720;2022-12-10T06:21:33;39.07;;;15.87;;
3006;SDS011;1513;47.650;10.720;2022-12-10T06:24:00;43.43;;;16.13;;
3006;SDS011;1513;47.650;10.720;2022-12-10T06:26:26;37.50;;;15.70;;
3006;SDS011;1513;47.650;10.720;2022-12-10T06:28:55;37.93;;;15.07;;
3006;SDS011;1513;47.650;10.720;2022-12-10T06:31:22;39.57;;;15.40;;
3006;SDS011;1513;47.650;10.720;2022-12-10T06:33:48;40.20;;;15.67;;
3006;SDS011;1513;47.650;10.720;2022-12-10T06:36:15;38.77;;;17.07;;
3006;SDS011;1513;47.650;10.720;2022-12-10T06:38:42;33.87;;;15.10;;
3006;SDS011;1513;47.650;10.720;2022-12-10T06:41:10;38.13;;;16.20;;
3006;SDS011;1513;47.650;10.720;2022-12-10T06:43:37;38.17;;;15.40;;
3006;SDS011;1513;47.650;10.720;2022-12-10T06:46:08;41.70;;;17.00;;
3006;SDS011;1513;47.650;10.720;2022-12-10T06:48:35;42.40;;;17.17;;
3006;SDS011;1513;47.650;10.720;2022-12-10T06:51:03;42.77;;;17.00;;
3006;SDS011;1513;47.650;10.720;2022-12-10T06:53:29;37.17;;;16.00;;
3006;SDS011;1513;47.650;10.720;2022-12-10T06:55:59;42.17;;;16.87;;
3006;SDS011;1513;47.650;10.720;2022-12-10T06:58:29;40.57;;;19.17;;
3006;SDS011;1513;47.650;10.720;2022-12-10T07:01:06;41.50;;;17.37;;
3006;SDS011;1513;47.650;10.720;2022-12-10T07:03:34;39.83;;;15.27;;
3006;SDS011;1513;47.650;10.720;2022-12-10T07:06:01;42.67;;;16.57;;
3006;SDS011;1513;47.650;10.720;2022-12-10T07:08:28;38.97;;;16.20;;
3006;SDS011;1513;47.650;10.720;2022-12-10T07:10:54;33.87;;;15.13;;
3006;SDS011;1513;47.650;10.720;2022-12-10T07:13:21;36.43;;;14.57;;
3006;SDS011;1513;47.650;10.720;2022-12-10T07:15:47;34.93;;;15.23;;
3006;SDS011;1513;47.650;10.720;2022-12-10T07:18:13;34.50;;;15.13;;
3006;SDS011;1513;47.650;10.720;2022-12-10T07:20:40;35.97;;;14.97;;
3006;SDS011;1513;47.650;10.720;2022-12-10T07:23:06;41.27;;;16.20;;
3006;SDS011;1513;47.650;10.720;2022-12-10T07:25:33;36.20;;;14.80;;
3006;SDS011;1513;47.650;10.720;2022-12-10T07:27:59;39.73;;;16.13;;
3006;SDS011;1513;47.650;10.720;2022-12-10T07:30:25;42.10;;;16.13;;
3006;SDS011;1513;47.650;10.720;2022-12-10T07:32:52;51.90;;;20.57;;
3006;SDS011;1513;47.650;10.720;2022-12-10T07:35:18;56.80;;;22.43;;
3006;SDS011;1513;47.650;10.720;2022-12-10T07:37:44;49.53;;;19.80;;
3006;SDS011;1513;47.650;10.720;2022-12-10T07:40:10;50.73;;;21.40;;
3006;SDS011;1513;47.650;10.720;2022-12-10T07:42:37;57.03;;;21.00;;
3006;SDS011;1513;47.650;10.720;2022-12-10T07:45:03;58.90;;;20.23;;
3006;SDS011;1513;47.650;10.720;2022-12-10T07:47:29;50.03;;;19.90;;
3006;SDS011;1513;47.650;10.720;2022-12-10T07:49:55;47.17;;;17.07;;
3006;SDS011;1513;47.650;10.720;2022-12-10T07:52:22;49.53;;;21.20;;
3006;SDS011;1513;47.650;10.720;2022-12-10T07:54:48;57.27;;;20.23;;
3006;SDS011;1513;47.650;10.720;2022-12-10T07:57:14;96.53;;;32.33;;
3006;SDS011;1513;47.650;10.720;2022-12-10T07:59:40;54.07;;;21.43;;
3006;SDS011;1513;47.650;10.720;2022-12-10T08:02:07;123.80;;;40.97;;
3006;SDS011;1513;47.650;10.720;2022-12-10T08:04:34;165.40;;;56.17;;
3006;SDS011;1513;47.650;10.720;2022-12-10T08:07:00;108.37;;;39.63;;
3006;SDS011;1513;47.650;10.720;2022-12-10T08:09:27;104.37;;;36.63;;
3006;SDS011;1513;47.650;10.720;2022-12-10T08:11:53;84.00;;;35.23;;
3006;SDS011;1513;47.650;10.720;2022-12-10T08:14:19;92.43;;;34.20;;
3006;SDS011;1513;47.650;10.720;2022-12-10T08:16:45;76.07;;;29.07;;
3006;SDS011;1513;47.650;10.720;2022-12-10T08:19:11;97.73;;;32.40;;
3006;SDS011;1513;47.650;10.720;2022-12-10T08:21:37;199.23;;;58.37;;
3006;SDS011;1513;47.650;10.720;2022-12-10T08:24:04;115.77;;;40.30;;
3006;SDS011;1513;47.650;10.720;2022-12-10T08:26:31;146.87;;;49.50;;
3006;SDS011;1513;47.650;10.720;2022-12-10T08:28:59;159.43;;;53.20;;
3006;SDS011;1513;47.650;10.720;2022-12-10T08:31:26;154.07;;;48.93;;
3006;SDS011;1513;47.650;10.720;2022-12-10T08:33:53;215.10;;;72.50;;
3006;SDS011;1513;47.650;10.720;2022-12-10T08:36:19;175.70;;;63.40;;
3006;SDS011;1513;47.650;10.720;2022-12-10T08:38:45;91.77;;;41.27;;
3006;SDS011;1513;47.650;10.720;2022-12-10T08:41:13;88.57;;;38.00;;
3006;SDS011;1513;47.650;10.720;2022-12-10T08:43:42;52.57;;;22.87;;
3006;SDS011;1513;47.650;10.720;2022-12-10T08:46:10;68.43;;;29.40;;
3006;SDS011;1513;47.650;10.720;2022-12-10T08:48:37;35.90;;;15.53;;
3006;SDS011;1513;47.650;10.720;2022-12-10T08:51:03;68.80;;;26.40;;
3006;SDS011;1513;47.650;10.720;2022-12-10T08:53:32;52.27;;;21.47;;
3006;SDS011;1513;47.650;10.720;2022-12-10T08:55:58;47.67;;;20.83;;
3006;SDS011;1513;47.650;10.720;2022-12-10T08:58:24;86.73;;;31.40;;
3006;SDS011;1513;47.650;10.720;2022-12-10T09:00:50;78.27;;;28.80;;
3006;SDS011;1513;47.650;10.720;2022-12-10T09:03:16;46.80;;;19.20;;
3006;SDS011;1513;47.650;10.720;2022-12-10T09:05:42;40.10;;;16.43;;
3006;SDS011;1513;47.650;10.720;2022-12-10T09:08:08;50.80;;;18.10;;
3006;SDS011;1513;47.650;10.720;2022-12-10T09:10:35;60.47;;;22.73;;
3006;SDS011;1513;47.650;10.720;2022-12-10T09:13:03;71.47;;;27.70;;
3006;SDS011;1513;47.650;10.720;2022-12-10T09:15:29;54.90;;;23.00;;
3006;SDS011;1513;47.650;10.720;2022-12-10T09:17:55;45.80;;;17.80;;
3006;SDS011;1513;47.650;10.720;2022-12-10T09:20:21;43.50;;;17.93;;
3006;SDS011;1513;47.650;10.720;2022-12-10T09:22:48;70.17;;;24.70;;
3006;SDS011;1513;47.650;10.720;2022-12-10T09:25:13;47.80;;;19.37;;
3006;SDS011;1513;47.650;10.720;2022-12-10T09:55:37;65.37;;;19.93;;
3006;SDS011;1513;47.650;10.720;2022-12-10T09:58:09;58.10;;;21.83;;
3006;SDS011;1513;47.650;10.720;2022-12-10T10:00:50;45.40;;;18.97;;
3006;SDS011;1513;47.650;10.720;2022-12-10T10:03:23;42.73;;;18.50;;
3006;SDS011;1513;47.650;10.720;2022-12-10T10:05:49;37.83;;;16.93;;
3006;SDS011;1513;47.650;10.720;2022-12-10T10:11:05;36.37;;;16.43;;
3006;SDS011;1513;47.650;10.720;2022-12-10T10:13:40;41.17;;;18.30;;
3006;SDS011;1513;47.650;10.720;2022-12-10T10:16:24;37.37;;;16.77;;
3006;SDS011;1513;47.650;10.720;2022-12-10T10:19:01;34.80;;;15.00;;
3006;SDS011;1513;47.650;10.720;2022-12-10T10:21:47;44.43;;;17.03;;
3006;SDS011;1513;47.650;10.720;2022-12-10T10:24:21;86.33;;;31.73;;
3006;SDS011;1513;47.650;10.720;2022-12-10T10:26:56;96.57;;;35.63;;
3006;SDS011;1513;47.650;10.720;2022-12-10T10:29:38;116.13;;;41.43;;
3006;SDS011;1513;47.650;10.720;2022-12-10T10:32:23;231.27;;;70.47;;
3006;SDS011;1513;47.650;10.720;2022-12-10T10:34:54;115.80;;;43.57;;
3006;SDS011;1513;47.650;10.720;2022-12-10T10:40:01;131.90;;;49.90;;
3006;SDS011;1513;47.650;10.720;2022-12-10T10:42:34;108.07;;;42.50;;
3006;SDS011;1513;47.650;10.720;2022-12-10T10:48:09;85.37;;;35.13;;
3006;SDS011;1513;47.650;10.720;2022-12-10T10:50:42;140.00;;;55.03;;
3006;SDS011;1513;47.650;10.720;2022-12-10T10:53:30;41.43;;;19.93;;
3006;SDS011;1513;47.650;10.720;2022-12-10T10:56:10;75.20;;;32.57;;
3006;SDS011;1513;47.650;10.720;2022-12-10T10:58:58;47.57;;;21.77;;
3006;SDS011;1513;47.650;10.720;2022-12-10T11:04:18;42.27;;;18.73;;
3006;SDS011;1513;47.650;10.720;2022-12-10T11:10:14;40.77;;;17.07;;
3006;SDS011;1513;47.650;10.720;2022-12-10T11:12:53;40.27;;;18.03;;
3006;SDS011;1513;47.650;10.720;2022-12-10T11:17:49;43.60;;;20.50;;
3006;SDS011;1513;47.650;10.720;2022-12-10T11:20:24;36.87;;;17.03;;
3006;SDS011;1513;47.650;10.720;2022-12-10T11:22:53;42.30;;;17.73;;
3006;SDS011;1513;47.650;10.720;2022-12-10T11:25:32;39.73;;;15.67;;
3006;SDS011;1513;47.650;10.720;2022-12-10T11:28:30;33.27;;;14.70;;
3006;SDS011;1513;47.650;10.720;2022-12-10T11:31:22;48.03;;;21.00;;
3006;SDS011;1513;47.650;10.720;2022-12-10T11:40:37;37.07;;;14.20;;
3006;SDS011;1513;47.650;10.720;2022-12-10T11:55:07;65.73;;;26.13;;
3006;SDS011;1513;47.650;10.720;2022-12-10T12:03:45;90.33;;;34.80;;
3006;SDS011;1513;47.650;10.720;2022-12-10T12:09:25;77.17;;;34.53;;
3006;SDS011;1513;47.650;10.720;2022-12-10T12:15:18;69.13;;;24.40;;
3006;SDS011;1513;47.650;10.720;2022-12-10T12:17:55;51.03;;;19.53;;
3006;SDS011;1513;47.650;10.720;2022-12-10T12:20:30;39.57;;;16.00;;
3006;SDS011;1513;47.650;10.720;2022-12-10T12:26:20;39.70;;;16.50;;
3006;SDS011;1513;47.650;10.720;2022-12-10T12:28:56;32.67;;;13.47;;
3006;SDS011;1513;47.650;10.720;2022-12-10T12:32:04;28.73;;;13.07;;
3006;SDS011;1513;47.650;10.720;2022-12-10T12:37:14;30.43;;;13.63;;
3006;SDS011;1513;47.650;10.720;2022-12-10T12:47:48;34.20;;;14.47;;
3006;SDS011;1513;47.650;10.720;2022-12-10T12:53:21;30.30;;;13.83;;
3006;SDS011;1513;47.650;10.720;2022-12-10T12:55:55;30.77;;;13.60;;
3006;SDS011;1513;47.650;10.720;2022-12-10T12:58:36;38.43;;;16.33;;
3006;SDS011;1513;47.650;10.720;2022-12-10T13:03:57;60.03;;;23.10;;
3006;SDS011;1513;47.650;10.720;2022-12-10T13:06:25;42.40;;;16.27;;
3006;SDS011;1513;47.650;10.720;2022-12-10T13:14:34;54.53;;;21.13;;
3006;SDS011;1513;47.650;10.720;2022-12-10T13:19:40;62.50;;;23.67;;
3006;SDS011;1513;47.650;10.720;2022-12-10T13:22:10;59.17;;;21.10;;
3006;SDS011;1513;47.650;10.720;2022-12-10T13:25:05;46.63;;;18.57;;
3006;SDS011;1513;47.650;10.720;2022-12-10T13:27:37;44.10;;;17.90;;
3006;SDS011;1513;47.650;10.720;2022-12-10T13:33:09;49.20;;;20.17;;
3006;SDS011;1513;47.650;10.720;2022-12-10T13:35:44;50.33;;;18.90;;
3006;SDS011;1513;47.650;10.720;2022-12-10T13:38:23;46.97;;;19.90;;
3006;SDS011;1513;47.650;10.720;2022-12-10T13:41:04;50.83;;;19.57;;
3006;SDS011;1513;47.650;10.720;2022-12-10T13:43:57;50.73;;;21.23;;
3006;SDS011;1513;47.650;10.720;2022-12-10T13:50:32;54.10;;;18.73;;
3006;SDS011;1513;47.650;10.720;2022-12-10T13:58:42;50.93;;;18.57;;
3006;SDS011;1513;47.650;10.720;2022-12-10T14:07:12;40.80;;;16.73;;
3006;SDS011;1513;47.650;10.720;2022-12-10T14:09:54;45.07;;;19.30;;
3006;SDS011;1513;47.650;10.720;2022-12-10T14:12:33;44.33;;;18.20;;
3006;SDS011;1513;47.650;10.720;2022-12-10T14:15:03;41.53;;;17.10;;
3006;SDS011;1513;47.650;10.720;2022-12-10T14:17:37;44.40;;;17.83;;
3006;SDS011;1513;47.650;10.720;2022-12-10T14:20:07;45.03;;;18.60;;
3006;SDS011;1513;47.650;10.720;2022-12-10T14:22:43;42.67;;;16.10;;
3006;SDS011;1513;47.650;10.720;2022-12-10T14:25:14;34.90;;;15.40;;
3006;SDS011;1513;47.650;10.720;2022-12-10T14:27:47;35.47;;;16.93;;
3006;SDS011;1513;47.650;10.720;2022-12-10T14:30:19;42.23;;;17.17;;
3006;SDS011;1513;47.650;10.720;2022-12-10T14:32:48;47.00;;;17.90;;
3006;SDS011;1513;47.650;10.720;2022-12-10T14:35:17;50.97;;;19.40;;
3006;SDS011;1513;47.650;10.720;2022-12-10T14:37:48;64.33;;;24.50;;
3006;SDS011;1513;47.650;10.720;2022-12-10T14:40:29;87.47;;;30.37;;
3006;SDS011;1513;47.650;10.720;2022-12-10T14:43:04;82.63;;;30.53;;
3006;SDS011;1513;47.650;10.720;2022-12-10T14:45:53;80.93;;;26.80;;
3006;SDS011;1513;47.650;10.720;2022-12-10T14:48:23;62.27;;;24.60;;
3006;SDS011;1513;47.650;10.720;2022-12-10T14:50:49;60.37;;;23.10;;
3006;SDS011;1513;47.650;10.720;2022-12-10T14:53:17;44.67;;;19.13;;
3006;SDS011;1513;47.650;10.720;2022-12-10T14:55:52;53.83;;;23.30;;
3006;SDS011;1513;47.650;10.720;2022-12-10T15:01:04;51.20;;;21.10;;
3006;SDS011;1513;47.650;10.720;2022-12-10T15:03:32;48.70;;;19.53;;
3006;SDS011;1513;47.650;10.720;2022-12-10T15:06:08;42.70;;;18.13;;
3006;SDS011;1513;47.650;10.720;2022-12-10T15:08:34;37.50;;;14.80;;
3006;SDS011;1513;47.650;10.720;2022-12-10T15:11:01;28.13;;;12.70;;
3006;SDS011;1513;47.650;10.720;2022-12-10T15:13:37;30.23;;;14.70;;
3006;SDS011;1513;47.650;10.720;2022-12-10T15:16:15;35.70;;;14.73;;
3006;SDS011;1513;47.650;10.720;2022-12-10T15:18:53;31.70;;;14.33;;
3006;SDS011;1513;47.650;10.720;2022-12-10T15:21:24;37.70;;;15.10;;
3006;SDS011;1513;47.650;10.720;2022-12-10T15:24:07;24.97;;;11.83;;
3006;SDS011;1513;47.650;10.720;2022-12-10T15:26:41;23.90;;;11.20;;
3006;SDS011;1513;47.650;10.720;2022-12-10T15:31:58;43.70;;;19.87;;
3006;SDS011;1513;47.650;10.720;2022-12-10T15:34:42;37.13;;;16.57;;
3006;SDS011;1513;47.650;10.720;2022-12-10T15:37:18;41.37;;;16.60;;
3006;SDS011;1513;47.650;10.720;2022-12-10T15:39:54;36.97;;;16.50;;
3006;SDS011;1513;47.650;10.720;2022-12-10T15:45:18;44.60;;;17.30;;
3006;SDS011;1513;47.650;10.720;2022-12-10T15:47:51;36.93;;;15.20;;
3006;SDS011;1513;47.650;10.720;2022-12-10T15:50:17;27.50;;;12.27;;
3006;SDS011;1513;47.650;10.720;2022-12-10T15:52:43;33.80;;;14.30;;
3006;SDS011;1513;47.650;10.720;2022-12-10T15:55:10;41.13;;;17.50;;
3006;SDS011;1513;47.650;10.720;2022-12-10T15:57:39;35.50;;;16.23;;
3006;SDS011;1513;47.650;10.720;2022-12-10T16:02:55;31.73;;;13.43;;
3006;SDS011;1513;47.650;10.720;2022-12-10T16:05:28;39.47;;;15.97;;
3006;SDS011;1513;47.650;10.720;2022-12-10T16:08:01;33.30;;;14.30;;
3006;SDS011;1513;47.650;10.720;2022-12-10T16:10:47;39.33;;;16.70;;
3006;SDS011;1513;47.650;10.720;2022-12-10T16:13:23;36.00;;;15.83;;
3006;SDS011;1513;47.650;10.720;2022-12-10T16:15:58;36.57;;;15.70;;
3006;SDS011;1513;47.650;10.720;2022-12-10T16:18:28;45.30;;;18.00;;
3006;SDS011;1513;47.650;10.720;2022-12-10T16:20:54;33.93;;;15.00;;
3006;SDS011;1513;47.650;10.720;2022-12-10T16:23:19;33.30;;;15.37;;
3006;SDS011;1513;47.650;10.720;2022-12-10T16:25:45;60.03;;;22.83;;
3006;SDS011;1513;47.650;10.720;2022-12-10T16:28:13;32.93;;;14.63;;
3006;SDS011;1513;47.650;10.720;2022-12-10T16:33:10;37.53;;;15.37;;
3006;SDS011;1513;47.650;10.720;2022-12-10T16:35:37;36.33;;;14.70;;
3006;SDS011;1513;47.650;10.720;2022-12-10T16:38:03;33.70;;;13.03;;
3006;SDS011;1513;47.650;10.720;2022-12-10T16:40:29;35.13;;;14.67;;
3006;SDS011;1513;47.650;10.720;2022-12-10T16:42:55;31.00;;;15.10;;
3006;SDS011;1513;47.650;10.720;2022-12-10T16:45:24;27.00;;;12.30;;
3006;SDS011;1513;47.650;10.720;2022-12-10T16:47:57;23.00;;;10.90;;
3006;SDS011;1513;47.650;10.720;2022-12-10T16:50:23;24.93;;;12.00;;
3006;SDS011;1513;47.650;10.720;2022-12-10T16:52:49;24.07;;;11.73;;
3006;SDS011;1513;47.650;10.720;2022-12-10T16:55:21;29.90;;;13.60;;
3006;SDS011;1513;47.650;10.720;2022-12-10T16:57:50;25.13;;;12.87;;
3006;SDS011;1513;47.650;10.720;2022-12-10T17:00:18;24.17;;;12.47;;
3006;SDS011;1513;47.650;10.720;2022-12-10T17:02:47;25.30;;;11.27;;
3006;SDS011;1513;47.650;10.720;2022-12-10T17:07:59;24.23;;;11.60;;
3006;SDS011;1513;47.650;10.720;2022-12-10T17:10:25;47.57;;;16.50;;
3006;SDS011;1513;47.650;10.720;2022-12-10T17:13:10;23.73;;;10.80;;
3006;SDS011;1513;47.650;10.720;2022-12-10T17:15:39;25.93;;;10.70;;
3006;SDS011;1513;47.650;10.720;2022-12-10T17:18:11;31.50;;;12.70;;
3006;SDS011;1513;47.650;10.720;2022-12-10T17:20:40;27.13;;;11.30;;
3006;SDS011;1513;47.650;10.720;2022-12-10T17:23:06;25.83;;;12.20;;
3006;SDS011;1513;47.650;10.720;2022-12-10T17:25:32;23.37;;;10.83;;
3006;SDS011;1513;47.650;10.720;2022-12-10T17:27:58;26.73;;;10.70;;
3006;SDS011;1513;47.650;10.720;2022-12-10T17:30:24;30.10;;;11.60;;
3006;SDS011;1513;47.650;10.720;2022-12-10T17:32:50;31.03;;;13.30;;
3006;SDS011;1513;47.650;10.720;2022-12-10T17:35:18;34.07;;;13.37;;
3006;SDS011;1513;47.650;10.720;2022-12-10T17:37:45;30.90;;;12.40;;
3006;SDS011;1513;47.650;10.720;2022-12-10T17:42:43;34.00;;;13.60;;
3006;SDS011;1513;47.650;10.720;2022-12-10T17:45:13;30.63;;;12.67;;